KCGC

Crystal River-Captain Tom Davis Field Airport

Crystal River, Florida, USA
METAR KCGC 210515Z AUTO 00000KT 23/23 A3011 RMK AO2 PWINO
Observed Flight Rules
Aug-21 @ 05:15 UTC (9 hours ago)
Temperatures Readings
Current 23°C / 73°F
Dewpoint 23°C / 73°F
Humidity 100%
Altimeter 30.11" Hg
Pressure 1020 hPa
Elevation 3
METAR KCGC 210515Z AUTO 00000KT 23/23 A3011 RMK AO2 PWINO
Observed Flight Rules
Aug-21 @ 05:15 UTC
(9 hours ago)
Temperature Dewpoint
23°C / 73°F 23°C / 73°F
Humidity Altimeter Pressure
100% 30.11" Hg 1020 hPa